createdAt,value
2019-04-03T00:02:04.379Z,4.22
2019-04-03T00:04:34.378Z,4.19
2019-04-03T00:07:03.863Z,4.13
2019-04-03T00:09:35.839Z,4.21
2019-04-03T00:12:04.559Z,4.04
2019-04-03T00:14:33.412Z,3.90
2019-04-03T00:17:02.134Z,3.87
2019-04-03T00:19:30.997Z,3.75
2019-04-03T00:22:05.619Z,3.67
2019-04-03T00:24:34.335Z,3.58
2019-04-03T00:27:03.189Z,3.77
2019-04-03T00:29:31.922Z,3.45
2019-04-03T00:32:01.640Z,3.22
2019-04-03T00:34:30.410Z,2.94
2019-04-03T00:36:59.132Z,2.84
2019-04-03T00:39:27.858Z,2.93
2019-04-03T00:41:56.668Z,2.86
2019-04-03T00:44:25.487Z,2.93
2019-04-03T00:46:55.554Z,2.77
2019-04-03T00:49:26.077Z,2.73
2019-04-03T00:51:57.131Z,2.68
2019-04-03T00:54:26.465Z,2.81
2019-04-03T00:56:56.484Z,3.06
2019-04-03T00:59:26.396Z,2.97
2019-04-03T01:01:56.568Z,2.77
2019-04-03T01:04:28.310Z,2.82
2019-04-03T01:06:56.835Z,2.66
2019-04-03T01:09:29.054Z,2.54
2019-04-03T01:11:58.787Z,2.45
2019-04-03T01:14:27.900Z,2.39
2019-04-03T01:16:56.940Z,2.43
2019-04-03T01:19:25.776Z,2.40
2019-04-03T01:21:54.502Z,2.40
2019-04-03T01:24:23.295Z,2.38
2019-04-03T01:26:52.196Z,2.51
2019-04-03T01:29:20.899Z,2.47
2019-04-03T01:31:49.615Z,2.59
2019-04-03T01:34:18.370Z,2.50
2019-04-03T01:36:48.156Z,2.41
2019-04-03T01:39:18.978Z,2.41
2019-04-03T01:41:48.073Z,2.36
2019-04-03T01:44:16.818Z,2.48
2019-04-03T01:46:47.110Z,2.44
2019-04-03T01:49:15.918Z,2.35
2019-04-03T01:51:44.644Z,2.30
2019-04-03T01:54:13.359Z,2.31
2019-04-03T01:56:42.446Z,2.41
2019-04-03T01:59:11.155Z,2.33
2019-04-03T02:01:39.877Z,2.19
2019-04-03T02:04:08.656Z,2.50
2019-04-03T02:06:37.384Z,2.60
2019-04-03T02:09:10.687Z,2.58
2019-04-03T02:11:39.637Z,2.78
2019-04-03T02:14:08.356Z,2.75
2019-04-03T02:16:37.264Z,2.83
2019-04-03T02:19:06.066Z,2.85
2019-04-03T02:21:34.786Z,2.71
2019-04-03T02:24:03.506Z,2.73
2019-04-03T02:26:33.069Z,2.64
2019-04-03T02:29:04.277Z,2.50
2019-04-03T02:31:32.299Z,2.54
2019-04-03T02:34:02.282Z,2.59
2019-04-03T02:36:31.470Z,2.59
2019-04-03T02:39:00.200Z,2.51
2019-04-03T02:41:29.448Z,2.47
2019-04-03T02:43:58.488Z,2.46
2019-04-03T02:46:29.039Z,2.37
2019-04-03T02:48:57.984Z,2.40
2019-04-03T02:51:26.977Z,2.31
2019-04-03T02:53:55.799Z,2.32
2019-04-03T02:56:24.879Z,2.24
2019-04-03T02:58:54.974Z,2.26
2019-04-03T03:01:24.180Z,2.11
2019-04-03T03:03:53.052Z,2.04
2019-04-03T03:06:21.769Z,1.88
2019-04-03T03:08:51.589Z,1.77
2019-04-03T03:11:24.729Z,1.70
2019-04-03T03:13:54.367Z,1.71
2019-04-03T03:16:23.095Z,1.80
2019-04-03T03:18:52.126Z,2.05
2019-04-03T03:21:21.592Z,2.04
2019-04-03T03:23:50.310Z,2.08
2019-04-03T03:26:19.576Z,2.14
2019-04-03T03:28:49.089Z,2.19
2019-04-03T03:31:19.119Z,2.25
2019-04-03T03:33:48.364Z,2.17
2019-04-03T03:36:22.664Z,2.21
2019-04-03T03:38:48.770Z,2.23
2019-04-03T03:41:22.089Z,2.26
2019-04-03T03:43:48.577Z,2.34
2019-04-03T03:46:18.142Z,2.29
2019-04-03T03:48:47.134Z,2.25
2019-04-03T03:51:16.426Z,2.24
2019-04-03T03:53:47.595Z,2.36
2019-04-03T03:56:18.773Z,2.33
2019-04-03T03:58:49.202Z,2.35
2019-04-03T04:01:18.952Z,2.32
2019-04-03T04:03:47.876Z,2.34
2019-04-03T04:06:16.898Z,2.49
2019-04-03T04:08:45.877Z,2.50
2019-04-03T04:11:14.696Z,2.46
2019-04-03T04:13:47.436Z,2.41
2019-04-03T04:16:15.646Z,2.41
2019-04-03T04:18:44.430Z,2.41
2019-04-03T04:21:13.252Z,2.40
2019-04-03T04:23:41.976Z,2.51
2019-04-03T04:26:11.244Z,2.57
2019-04-03T04:28:40.704Z,2.58
2019-04-03T04:31:12.342Z,2.58
2019-04-03T04:33:40.328Z,2.57
2019-04-03T04:36:09.265Z,2.46
2019-04-03T04:38:37.971Z,2.30
2019-04-03T04:41:06.988Z,2.20
2019-04-03T04:43:35.709Z,2.15
2019-04-03T04:46:04.428Z,2.17
2019-04-03T04:48:33.186Z,2.23
2019-04-03T04:51:01.903Z,2.25
2019-04-03T04:53:30.802Z,2.40
2019-04-03T04:55:59.803Z,2.48
2019-04-03T04:58:28.490Z,2.59
2019-04-03T05:00:57.217Z,2.81
2019-04-03T05:03:26.325Z,2.90
2019-04-03T05:05:57.258Z,3.20
2019-04-03T05:08:25.453Z,3.39
2019-04-03T05:10:54.256Z,3.74
2019-04-03T05:13:24.102Z,4.00
2019-04-03T05:15:53.926Z,4.01
2019-04-03T05:18:24.779Z,4.04
2019-04-03T05:20:53.466Z,4.18
2019-04-03T05:23:22.196Z,4.32
2019-04-03T05:25:51.102Z,4.58
2019-04-03T05:28:19.834Z,4.72
2019-04-03T05:30:48.554Z,4.88
2019-04-03T05:33:17.518Z,4.86
2019-04-03T05:35:46.643Z,5.01
2019-04-03T05:38:15.613Z,5.12
2019-04-03T05:40:44.499Z,5.37
2019-04-03T05:43:13.222Z,5.67
2019-04-03T05:45:42.355Z,5.88
2019-04-03T05:48:13.393Z,6.33
2019-04-03T05:50:41.926Z,6.46
2019-04-03T05:53:10.645Z,6.69
2019-04-03T05:55:41.009Z,7.05
2019-04-03T05:58:09.866Z,7.25
2019-04-03T06:00:38.818Z,7.19
2019-04-03T06:03:07.953Z,7.11
2019-04-03T06:05:36.675Z,6.68
2019-04-03T06:08:05.403Z,6.72
2019-04-03T06:10:37.152Z,6.94
2019-04-03T06:13:06.068Z,7.11
2019-04-03T06:15:35.184Z,7.31
2019-04-03T06:18:04.381Z,7.15
2019-04-03T06:20:33.109Z,7.36
2019-04-03T06:23:02.128Z,7.47
2019-04-03T06:25:31.394Z,7.66
2019-04-03T06:28:00.808Z,7.61
2019-04-03T06:30:29.520Z,7.69
2019-04-03T06:33:00.960Z,7.88
2019-04-03T06:35:34.614Z,8.09
2019-04-03T06:38:01.911Z,8.76
2019-04-03T06:40:31.200Z,9.40
2019-04-03T06:43:00.020Z,9.52
2019-04-03T06:45:28.796Z,9.75
2019-04-03T06:47:57.518Z,9.54
2019-04-03T06:50:26.272Z,9.76
2019-04-03T06:52:55.226Z,9.58
2019-04-03T06:55:25.371Z,9.92
2019-04-03T06:57:54.280Z,9.72
2019-04-03T07:00:23.010Z,10.14
2019-04-03T07:02:51.998Z,9.99
2019-04-03T07:05:20.878Z,10.25
2019-04-03T07:07:49.789Z,10.70
2019-04-03T07:10:25.335Z,10.96
2019-04-03T07:12:49.024Z,10.91
2019-04-03T07:15:17.750Z,11.29
2019-04-03T07:17:48.201Z,11.77
2019-04-03T07:20:19.349Z,11.90
2019-04-03T07:22:47.446Z,12.06
2019-04-03T07:25:16.467Z,12.17
2019-04-03T07:27:45.194Z,12.22
2019-04-03T07:30:16.808Z,12.46
2019-04-03T07:32:45.016Z,12.90
2019-04-03T07:35:13.734Z,13.28
2019-04-03T07:37:42.653Z,12.95
2019-04-03T07:40:12.307Z,12.63
2019-04-03T07:42:41.076Z,13.29
2019-04-03T07:48:00.080Z,13.35
2019-04-03T07:50:28.812Z,13.73
2019-04-03T07:52:57.604Z,13.95
2019-04-03T07:55:27.955Z,13.86
2019-04-03T07:58:00.032Z,13.83
2019-04-03T08:00:28.933Z,13.68
2019-04-03T08:02:57.665Z,13.79
2019-04-03T08:05:26.386Z,13.72
2019-04-03T08:07:55.473Z,13.83
2019-04-03T08:10:24.260Z,13.46
2019-04-03T08:12:53.124Z,13.18
2019-04-03T08:15:22.056Z,13.36
2019-04-03T08:17:50.994Z,13.68
2019-04-03T08:20:20.577Z,13.92
2019-04-03T08:22:49.494Z,13.89
2019-04-03T08:25:18.489Z,13.84
2019-04-03T08:27:48.687Z,14.28
2019-04-03T08:30:17.891Z,14.20
2019-04-03T08:32:48.184Z,14.52
2019-04-03T08:35:21.582Z,14.61
2019-04-03T08:37:47.779Z,14.52
2019-04-03T08:40:20.019Z,14.10
2019-04-03T08:42:47.498Z,13.91
2019-04-03T08:45:16.362Z,14.00
2019-04-03T08:47:46.274Z,14.00
2019-04-03T08:50:15.676Z,13.83
2019-04-03T08:52:44.531Z,13.66
2019-04-03T08:55:14.510Z,13.93
2019-04-03T08:57:45.960Z,14.19
2019-04-03T09:00:14.296Z,13.71
2019-04-03T09:02:43.919Z,14.07
2019-04-03T09:05:14.120Z,14.36
2019-04-03T09:07:43.585Z,14.07
2019-04-03T09:10:12.918Z,13.73
2019-04-03T09:12:42.037Z,14.36
2019-04-03T09:15:11.610Z,14.87
2019-04-03T09:17:40.334Z,14.76
2019-04-03T09:20:12.884Z,14.58
2019-04-03T09:22:40.401Z,15.12
2019-04-03T09:25:09.759Z,15.05
2019-04-03T09:27:40.349Z,15.16
2019-04-03T09:30:16.177Z,14.86
2019-04-03T09:32:44.412Z,15.00
2019-04-03T09:35:14.262Z,15.60
2019-04-03T09:37:45.639Z,15.68
2019-04-03T09:40:16.464Z,15.86
2019-04-03T09:42:44.678Z,15.29
2019-04-03T09:45:13.977Z,15.82
2019-04-03T09:47:42.702Z,15.49
2019-04-03T09:50:13.950Z,15.10
2019-04-03T09:52:48.161Z,15.32
2019-04-03T09:55:13.411Z,15.44
2019-04-03T09:57:42.225Z,15.49
2019-04-03T10:00:12.157Z,15.38
2019-04-03T10:02:41.214Z,15.32
2019-04-03T10:05:10.506Z,15.47
2019-04-03T10:07:39.363Z,15.64
2019-04-03T10:10:09.064Z,15.39
2019-04-03T10:12:38.032Z,15.54
2019-04-03T10:15:10.092Z,15.26
2019-04-03T10:17:39.584Z,15.76
2019-04-03T10:20:10.230Z,15.87
2019-04-03T10:22:39.101Z,15.72
2019-04-03T10:25:09.323Z,15.35
2019-04-03T10:27:38.033Z,15.37
2019-04-03T10:30:13.003Z,15.66
2019-04-03T10:32:42.015Z,15.39
2019-04-03T10:35:10.950Z,15.47
2019-04-03T10:37:40.030Z,16.06
2019-04-03T10:40:10.363Z,16.70
2019-04-03T10:42:39.222Z,16.64
2019-04-03T10:45:09.984Z,16.75
2019-04-03T10:47:57.248Z,16.73
2019-04-03T10:50:26.583Z,16.21
2019-04-03T10:52:55.406Z,16.32
2019-04-03T10:55:24.097Z,15.90
2019-04-03T10:57:55.232Z,15.89
2019-04-03T11:00:25.018Z,16.24
2019-04-03T11:02:54.348Z,15.83
2019-04-03T11:05:23.102Z,15.60
2019-04-03T11:07:51.830Z,15.85
2019-04-03T11:10:23.364Z,15.85
2019-04-03T11:12:51.073Z,15.96
2019-04-03T11:15:21.278Z,15.91
2019-04-03T11:17:50.214Z,16.36
2019-04-03T11:20:19.531Z,16.44
2019-04-03T11:22:49.004Z,16.65
2019-04-03T11:25:17.834Z,17.00
2019-04-03T11:27:46.786Z,17.27
2019-04-03T11:30:19.124Z,17.21
2019-04-03T11:32:47.117Z,16.71
2019-04-03T11:35:16.406Z,16.54
2019-04-03T11:37:45.190Z,16.87
2019-04-03T11:40:17.402Z,16.93
2019-04-03T11:42:45.914Z,16.68
2019-04-03T11:45:16.036Z,16.71
2019-04-03T11:47:45.887Z,16.72
2019-04-03T11:50:16.720Z,17.08
2019-04-03T11:52:45.578Z,16.91
2019-04-03T11:55:15.588Z,16.74
2019-04-03T11:57:47.470Z,16.47
2019-04-03T12:00:19.969Z,16.64
2019-04-03T12:02:48.726Z,16.41
2019-04-03T12:05:20.814Z,16.48
2019-04-03T12:07:49.247Z,16.35
2019-04-03T12:10:17.989Z,16.71
2019-04-03T12:12:46.994Z,16.88
2019-04-03T12:15:16.574Z,16.92
2019-04-03T12:17:45.600Z,17.02
2019-04-03T12:20:16.512Z,17.40
2019-04-03T12:22:45.448Z,17.25
2019-04-03T12:25:15.182Z,17.06
2019-04-03T12:27:46.020Z,17.17
2019-04-03T12:30:15.202Z,16.79
2019-04-03T12:32:48.756Z,16.76
2019-04-03T12:35:14.752Z,16.94
2019-04-03T12:37:43.673Z,16.88
2019-04-03T12:40:12.682Z,16.86
2019-04-03T12:42:41.464Z,17.05
2019-04-03T12:45:10.787Z,16.93
2019-04-03T12:47:39.508Z,16.98
2019-04-03T12:50:11.840Z,16.65
2019-04-03T12:52:39.767Z,16.81
2019-04-03T12:55:09.732Z,17.15
2019-04-03T12:57:40.208Z,17.42
2019-04-03T13:00:12.529Z,17.54
2019-04-03T13:02:41.353Z,17.11
2019-04-03T13:05:11.141Z,16.82
2019-04-03T13:07:40.332Z,17.09
2019-04-03T13:10:10.049Z,17.16
2019-04-03T13:12:39.280Z,17.21
2019-04-03T13:15:10.598Z,17.18
2019-04-03T13:17:39.457Z,17.17
2019-04-03T13:20:09.277Z,17.30
2019-04-03T13:22:39.990Z,17.32
2019-04-03T13:25:09.590Z,17.39
2019-04-03T13:27:38.453Z,17.50
2019-04-03T13:30:11.469Z,17.36
2019-04-03T13:32:39.654Z,17.55
2019-04-03T13:35:09.608Z,17.09
2019-04-03T13:37:38.333Z,17.03
2019-04-03T13:40:07.867Z,17.07
2019-04-03T13:42:36.751Z,17.14
2019-04-03T13:45:12.395Z,17.37
2019-04-03T13:47:42.977Z,17.27
2019-04-03T13:50:12.652Z,17.36
2019-04-03T13:52:47.524Z,17.23
2019-04-03T13:55:12.151Z,17.09
2019-04-03T13:57:40.948Z,17.23
2019-04-03T14:00:20.682Z,16.94
2019-04-03T14:02:44.962Z,16.75
2019-04-03T14:05:13.272Z,16.54
2019-04-03T14:07:42.635Z,16.36
2019-04-03T14:10:12.105Z,16.31
2019-04-03T14:12:44.154Z,16.41
2019-04-03T14:15:11.582Z,16.40
2019-04-03T14:17:40.458Z,16.55
2019-04-03T14:20:10.831Z,16.65
2019-04-03T14:22:39.575Z,16.68
2019-04-03T14:25:18.944Z,16.52
2019-04-03T14:27:39.600Z,16.44
2019-04-03T14:30:11.158Z,16.48
2019-04-03T14:32:40.109Z,16.41
2019-04-03T14:35:38.512Z,16.34
2019-04-03T14:37:39.832Z,16.28
2019-04-03T14:40:11.105Z,16.21
2019-04-03T14:42:39.235Z,16.24
2019-04-03T14:45:13.344Z,16.00
2019-04-03T14:47:40.654Z,15.92
2019-04-03T14:50:10.187Z,15.88
2019-04-03T14:52:39.454Z,15.69
2019-04-03T14:55:19.905Z,15.66
2019-04-03T14:57:43.525Z,15.66
2019-04-03T15:00:30.831Z,15.80
2019-04-03T15:02:43.490Z,16.07
2019-04-03T15:05:12.315Z,15.96
2019-04-03T15:07:41.051Z,16.01
2019-04-03T15:10:11.324Z,15.97
2019-04-03T15:12:41.019Z,15.81
2019-04-03T15:15:10.134Z,15.85
2019-04-03T15:17:39.133Z,15.76
2019-04-03T15:20:09.678Z,15.72
2019-04-03T15:22:38.389Z,15.62
2019-04-03T15:25:08.765Z,15.49
2019-04-03T15:27:38.230Z,15.43
2019-04-03T15:30:10.962Z,15.24
2019-04-03T15:32:40.164Z,15.08
2019-04-03T15:35:09.213Z,14.85
2019-04-03T15:37:40.131Z,14.84
2019-04-03T15:40:09.284Z,14.67
2019-04-03T15:42:40.337Z,14.51
2019-04-03T15:45:10.270Z,14.54
2019-04-03T15:47:44.982Z,14.51
2019-04-03T15:50:09.976Z,14.60
2019-04-03T15:52:38.800Z,14.67
2019-04-03T15:55:08.683Z,14.81
2019-04-03T15:57:39.783Z,14.75
2019-04-03T16:00:11.053Z,14.76
2019-04-03T16:02:40.421Z,14.70
2019-04-03T16:05:09.745Z,14.59
2019-04-03T16:07:41.645Z,14.37
2019-04-03T16:10:09.597Z,14.14
2019-04-03T16:12:41.608Z,13.95
2019-04-03T16:15:09.781Z,13.83
2019-04-03T16:17:39.716Z,13.71
2019-04-03T16:20:09.011Z,13.52
2019-04-03T16:22:38.162Z,13.38
2019-04-03T16:25:08.245Z,13.19
2019-04-03T16:27:37.805Z,13.16
2019-04-03T16:30:09.712Z,12.97
2019-04-03T16:32:39.060Z,12.86
2019-04-03T16:35:08.768Z,12.76
2019-04-03T16:37:37.577Z,12.74
2019-04-03T16:40:10.135Z,12.55
2019-04-03T16:42:39.385Z,12.41
2019-04-03T16:45:10.520Z,12.48
2019-04-03T16:47:40.164Z,12.41
2019-04-03T16:50:10.115Z,12.27
2019-04-03T16:52:38.893Z,11.98
2019-04-03T16:55:08.067Z,11.72
2019-04-03T16:57:37.161Z,11.51
2019-04-03T17:00:11.225Z,11.48
2019-04-03T17:02:40.340Z,11.20
2019-04-03T17:05:11.187Z,11.09
2019-04-03T17:07:40.483Z,10.93
2019-04-03T17:10:10.706Z,10.77
2019-04-03T17:12:39.599Z,10.76
2019-04-03T17:15:09.972Z,10.53
2019-04-03T17:17:39.157Z,10.27
2019-04-03T17:20:09.355Z,10.09
2019-04-03T17:22:40.701Z,9.94
2019-04-03T17:25:10.683Z,9.90
2019-04-03T17:27:39.428Z,9.69
2019-04-03T17:30:09.284Z,9.58
2019-04-03T17:32:38.793Z,9.73
2019-04-03T17:35:08.747Z,9.54
2019-04-03T17:37:38.384Z,9.50
2019-04-03T17:40:11.472Z,9.46
2019-04-03T17:42:40.400Z,9.37
2019-04-03T17:45:15.521Z,9.43
2019-04-03T17:47:43.059Z,9.36
2019-04-03T17:50:13.325Z,9.23
2019-04-03T17:52:42.187Z,9.00
2019-04-03T17:55:11.296Z,8.99
2019-04-03T17:57:40.108Z,8.83
2019-04-03T18:00:20.494Z,8.89
2019-04-03T18:02:47.725Z,9.13
2019-04-03T18:05:17.534Z,9.01
2019-04-03T18:07:46.286Z,9.03
2019-04-03T18:10:15.199Z,9.00
2019-04-03T18:12:45.685Z,8.97
2019-04-03T18:15:16.199Z,8.90
2019-04-03T18:17:44.919Z,8.67
2019-04-03T18:20:14.641Z,8.70
2019-04-03T18:22:43.777Z,8.92
2019-04-03T18:25:12.784Z,8.95
2019-04-03T18:27:41.510Z,9.14
2019-04-03T18:30:12.554Z,9.28
2019-04-03T18:32:41.451Z,9.37
2019-04-03T18:35:11.477Z,9.20
2019-04-03T18:37:41.420Z,9.35
2019-04-03T18:40:15.081Z,9.44
2019-04-03T18:42:42.869Z,9.47
2019-04-03T18:45:24.147Z,9.53
2019-04-03T18:47:45.790Z,9.48
2019-04-03T18:50:13.488Z,9.43
2019-04-03T18:52:42.287Z,9.32
2019-04-03T18:55:13.940Z,9.10
2019-04-03T18:57:41.587Z,8.73
2019-04-03T19:00:12.281Z,8.54
2019-04-03T19:02:41.505Z,8.53
2019-04-03T19:05:13.738Z,8.33
2019-04-03T19:07:41.132Z,8.25
2019-04-03T19:10:10.056Z,8.13
2019-04-03T19:12:38.782Z,7.99
2019-04-03T19:15:08.273Z,7.73
2019-04-03T19:17:36.999Z,7.57
2019-04-03T19:20:11.186Z,7.54
2019-04-03T19:22:39.559Z,7.41
2019-04-03T19:25:08.889Z,7.28
2019-04-03T19:27:37.610Z,7.18
2019-04-03T19:30:08.121Z,7.16
2019-04-03T19:32:37.015Z,7.04
2019-04-03T19:35:09.449Z,7.07
2019-04-03T19:37:38.525Z,7.18
2019-04-03T19:40:09.776Z,6.84
2019-04-03T19:42:38.187Z,6.77
2019-04-03T19:45:08.513Z,6.72
2019-04-03T19:47:37.237Z,6.75
2019-04-03T19:50:08.668Z,6.78
2019-04-03T19:52:39.446Z,6.84
2019-04-03T19:55:08.416Z,6.79
2019-04-03T19:57:37.156Z,6.98
2019-04-03T20:00:08.798Z,7.18
2019-04-03T20:02:38.179Z,7.24
2019-04-03T20:05:07.658Z,7.10
2019-04-03T20:07:36.436Z,7.08
2019-04-03T20:10:10.277Z,7.04
2019-04-03T20:12:38.993Z,7.14
2019-04-03T20:15:08.577Z,7.00
2019-04-03T20:17:37.278Z,7.17
2019-04-03T20:20:07.733Z,7.06
2019-04-03T20:22:37.872Z,6.98
2019-04-03T20:25:07.699Z,6.99
2019-04-03T20:27:36.545Z,6.86
2019-04-03T20:30:09.297Z,6.78
2019-04-03T20:32:40.126Z,6.80
2019-04-03T20:35:08.451Z,6.75
2019-04-03T20:37:37.310Z,6.70
2019-04-03T20:40:07.220Z,6.67
2019-04-03T20:42:36.034Z,6.64
2019-04-03T20:45:09.021Z,6.67
2019-04-03T20:47:37.734Z,6.63
2019-04-03T20:50:08.854Z,6.62
2019-04-03T20:52:37.629Z,6.59
2019-04-03T20:55:08.017Z,6.53
2019-04-03T20:57:36.723Z,6.39
2019-04-03T21:00:14.244Z,6.45
2019-04-03T21:02:43.452Z,6.35
2019-04-03T21:05:12.484Z,6.42
2019-04-03T21:07:41.265Z,6.38
2019-04-03T21:10:10.173Z,6.33
2019-04-03T21:12:38.888Z,6.19
2019-04-03T21:15:09.362Z,6.06
2019-04-03T21:17:38.245Z,5.97
2019-04-03T21:20:07.456Z,5.91
2019-04-03T21:22:36.586Z,6.03
2019-04-03T21:25:06.999Z,5.95
2019-04-03T21:27:35.726Z,5.92
2019-04-03T21:30:07.208Z,6.07
2019-04-03T21:32:35.921Z,5.98
2019-04-03T21:35:05.244Z,5.84
2019-04-03T21:37:34.026Z,5.80
2019-04-03T21:40:04.873Z,5.75
2019-04-03T21:42:33.166Z,5.71
2019-04-03T21:45:04.955Z,5.92
2019-04-03T21:47:32.768Z,5.99
2019-04-03T21:50:03.601Z,5.91
2019-04-03T21:52:32.722Z,6.03
2019-04-03T21:55:04.586Z,6.05
2019-04-03T21:57:31.877Z,5.97
2019-04-03T22:00:00.671Z,5.81
2019-04-03T22:02:29.411Z,5.89
2019-04-03T22:04:58.124Z,5.77
2019-04-03T22:07:28.597Z,5.79
2019-04-03T22:09:57.373Z,5.80
2019-04-03T22:12:26.304Z,5.92
2019-04-03T22:14:57.827Z,5.79
2019-04-03T22:17:26.620Z,5.86
2019-04-03T22:19:58.354Z,5.75
2019-04-03T22:22:25.977Z,5.74
2019-04-03T22:24:54.764Z,5.69
2019-04-03T22:27:23.563Z,5.79
2019-04-03T22:29:52.391Z,5.77
2019-04-03T22:32:21.189Z,5.70
2019-04-03T22:34:49.988Z,5.75
2019-04-03T22:37:18.910Z,5.75
2019-04-03T22:39:47.709Z,5.57
2019-04-03T22:42:16.514Z,5.65
2019-04-03T22:44:47.657Z,5.67
2019-04-03T22:47:15.911Z,5.50
2019-04-03T22:49:44.699Z,5.52
2019-04-03T22:52:13.646Z,5.29
2019-04-03T22:54:43.857Z,5.35
2019-04-03T22:57:12.966Z,5.41
2019-04-03T22:59:41.879Z,5.26
2019-04-03T23:02:10.690Z,5.27
2019-04-03T23:04:41.876Z,5.24
2019-04-03T23:07:10.171Z,5.22
2019-04-03T23:09:38.961Z,5.17
2019-04-03T23:12:07.754Z,5.38
2019-04-03T23:14:38.256Z,5.25
2019-04-03T23:17:07.235Z,5.19
2019-04-03T23:19:36.023Z,5.10
2019-04-03T23:22:04.976Z,5.00
2019-04-03T23:24:33.777Z,5.02
2019-04-03T23:27:03.159Z,5.14
2019-04-03T23:29:32.285Z,5.09
2019-04-03T23:32:01.086Z,4.93
2019-04-03T23:34:29.885Z,4.85
2019-04-03T23:36:58.755Z,4.99
2019-04-03T23:39:28.379Z,4.73
2019-04-03T23:41:57.302Z,4.72
2019-04-03T23:44:26.592Z,4.69
2019-04-03T23:46:55.377Z,4.59
2019-04-03T23:49:24.179Z,4.52
2019-04-03T23:51:53.584Z,4.48
2019-04-03T23:54:22.380Z,4.43
2019-04-03T23:56:51.176Z,4.52
2019-04-03T23:59:20.048Z,4.52
